Time;durP1;ratioP1;P1;durP2;ratioP2;P2;SDS_P1;SDS_P2;PMS_P1;PMS_P2;Temp;Humidity;BMP_temperature;BMP_pressure;BME280_temperature;BME280_humidity;BME280_pressure;Samples;Min_cycle;Max_cycle;Signal;HPM_P1;HPM_P2
2023/03/14 05:05:51;;;;;;;1.95;0.85;;;10.10;99.90;;;;;;5131045;23;20278;-67
2023/03/14 05:08:16;;;;;;;0.50;0.50;;;10.10;99.90;;;;;;4974738;28;20167;-69
2023/03/14 05:10:42;;;;;;;0.80;0.80;;;10.10;99.90;;;;;;4974725;28;20610;-71
2023/03/14 05:13:07;;;;;;;0.73;0.43;;;10.10;99.90;;;;;;4974321;28;20230;-69
2023/03/14 05:15:33;;;;;;;1.57;0.73;;;10.10;99.90;;;;;;4974532;28;20198;-69
2023/03/14 05:17:59;;;;;;;0.50;0.50;;;10.10;99.90;;;;;;4974149;28;20207;-70
2023/03/14 05:20:25;;;;;;;0.77;0.77;;;10.00;99.90;;;;;;4974636;28;20188;-69
2023/03/14 05:22:51;;;;;;;1.85;0.77;;;10.00;99.90;;;;;;4974366;28;20164;-69
2023/03/14 05:25:16;;;;;;;1.17;0.77;;;10.10;99.90;;;;;;4974579;28;20516;-68
2023/03/14 05:27:42;;;;;;;0.60;0.60;;;10.00;99.90;;;;;;4974676;28;20176;-69
2023/03/14 05:30:08;;;;;;;0.40;0.40;;;10.00;99.90;;;;;;4974666;28;20597;-68
2023/03/14 05:32:34;;;;;;;0.40;0.40;;;10.10;99.90;;;;;;4974092;28;20653;-68
2023/03/14 05:35:00;;;;;;;0.67;0.67;;;10.10;99.90;;;;;;4972093;28;20199;-68
2023/03/14 05:37:26;;;;;;;1.00;0.53;;;10.10;99.90;;;;;;4974082;28;20593;-68
2023/03/14 05:39:52;;;;;;;0.65;0.65;;;10.10;99.90;;;;;;4974316;28;20176;-69
2023/03/14 05:42:18;;;;;;;0.40;0.40;;;10.20;99.90;;;;;;4974294;28;20256;-69
2023/03/14 05:44:43;;;;;;;0.85;0.85;;;10.20;99.90;;;;;;4974020;28;20192;-67
2023/03/14 05:47:09;;;;;;;0.43;0.43;;;10.20;99.90;;;;;;4974410;28;20171;-68
2023/03/14 05:49:35;;;;;;;1.30;0.50;;;10.20;99.90;;;;;;4974269;28;20172;-69
2023/03/14 05:52:00;;;;;;;2.00;0.50;;;10.20;99.90;;;;;;4973781;28;20419;-68
2023/03/14 05:54:26;;;;;;;0.60;0.60;;;10.30;99.90;;;;;;4973811;28;20192;-69
2023/03/14 05:56:52;;;;;;;0.57;0.57;;;10.20;99.90;;;;;;4968913;28;20558;-67
2023/03/14 05:59:17;;;;;;;1.57;1.00;;;10.20;99.90;;;;;;4954831;28;20180;-67
2023/03/14 06:01:43;;;;;;;0.63;0.60;;;10.30;99.90;;;;;;4962377;28;20442;-68
2023/03/14 06:04:09;;;;;;;1.37;1.10;;;10.30;99.90;;;;;;4954314;28;20189;-68
2023/03/14 06:06:34;;;;;;;1.80;0.70;;;10.30;99.90;;;;;;4974284;28;20216;-69
2023/03/14 06:09:01;;;;;;;0.70;0.60;;;10.30;99.90;;;;;;4977483;28;20188;-69
2023/03/14 06:11:26;;;;;;;0.55;0.55;;;10.40;99.90;;;;;;4977287;28;20646;-69
2023/03/14 06:13:52;;;;;;;0.60;0.60;;;10.40;99.90;;;;;;4977196;28;20207;-70
2023/03/14 06:16:17;;;;;;;1.37;0.40;;;10.40;99.90;;;;;;4977503;28;20259;-69
2023/03/14 06:18:43;;;;;;;0.43;0.43;;;10.50;99.90;;;;;;4977819;28;20176;-69
2023/03/14 06:21:09;;;;;;;2.20;0.60;;;10.40;99.90;;;;;;4977012;28;20188;-69
2023/03/14 06:23:34;;;;;;;2.97;0.73;;;10.50;99.90;;;;;;4976331;28;20519;-70
2023/03/14 06:26:00;;;;;;;0.67;0.47;;;10.50;99.90;;;;;;4976047;28;20235;-69
2023/03/14 06:28:26;;;;;;;2.42;0.80;;;10.50;99.90;;;;;;4977221;28;20173;-68
2023/03/14 06:30:52;;;;;;;1.53;0.97;;;10.50;99.90;;;;;;4976910;28;20211;-69
2023/03/14 06:33:17;;;;;;;0.70;0.70;;;10.50;99.90;;;;;;4976052;28;20948;-69
2023/03/14 06:35:43;;;;;;;0.57;0.57;;;10.50;99.90;;;;;;4976992;28;20196;-70
2023/03/14 06:38:08;;;;;;;0.67;0.43;;;10.40;99.90;;;;;;4977753;28;20204;-71
2023/03/14 06:40:34;;;;;;;0.87;0.87;;;10.40;99.90;;;;;;4977179;28;20809;-63
2023/03/14 06:42:59;;;;;;;2.77;0.70;;;10.40;99.90;;;;;;4976809;28;20190;-66
2023/03/14 06:45:25;;;;;;;1.07;0.70;;;10.40;99.90;;;;;;4977172;28;20243;-65
2023/03/14 06:47:51;;;;;;;0.67;0.67;;;10.50;99.90;;;;;;4976746;28;20182;-65
2023/03/14 06:50:16;;;;;;;4.63;0.93;;;10.60;99.90;;;;;;4975404;28;20191;-65
2023/03/14 06:52:47;;;;;;;0.93;0.50;;;10.70;99.90;;;;;;4977010;28;20187;-65
2023/03/14 06:55:15;;;;;;;1.55;0.80;;;10.80;99.90;;;;;;4976988;28;20566;-65
2023/03/14 06:57:41;;;;;;;1.25;0.73;;;11.00;99.90;;;;;;4976001;28;20219;-67
2023/03/14 07:00:08;;;;;;;3.20;0.57;;;11.50;99.90;;;;;;4976636;28;20183;-66
2023/03/14 07:02:33;;;;;;;1.57;0.87;;;11.80;99.90;;;;;;4975827;28;20170;-65
2023/03/14 07:05:00;;;;;;;0.40;0.40;;;12.20;99.90;;;;;;4976356;28;20436;-65
2023/03/14 07:07:26;;;;;;;0.87;0.57;;;12.60;99.90;;;;;;4976526;28;20187;-65
2023/03/14 07:09:52;;;;;;;0.40;0.40;;;12.90;99.90;;;;;;4976627;28;20413;-65
2023/03/14 07:12:17;;;;;;;0.50;0.43;;;13.40;99.90;;;;;;4976580;28;20449;-66
2023/03/14 07:14:43;;;;;;;0.83;0.60;;;13.60;99.90;;;;;;4975722;28;20561;-65
2023/03/14 07:17:09;;;;;;;1.20;0.80;;;13.70;99.90;;;;;;4975448;28;20281;-66
2023/03/14 07:19:34;;;;;;;2.50;0.67;;;13.90;99.90;;;;;;4976390;28;20541;-66
2023/03/14 07:22:00;;;;;;;0.60;0.60;;;14.30;99.90;;;;;;4976380;28;20172;-67
2023/03/14 07:24:25;;;;;;;1.20;1.17;;;14.90;99.90;;;;;;4976166;28;20193;-66
2023/03/14 07:26:51;;;;;;;0.50;0.40;;;15.40;99.90;;;;;;4976605;28;20481;-67
2023/03/14 07:29:16;;;;;;;0.30;0.30;;;15.90;99.90;;;;;;4976472;28;20267;-66
2023/03/14 07:31:42;;;;;;;0.60;0.60;;;16.60;99.90;;;;;;4976563;28;20175;-65
2023/03/14 07:34:08;;;;;;;1.03;0.53;;;17.30;99.90;;;;;;4975795;28;20276;-66
2023/03/14 07:36:33;;;;;;;1.17;0.70;;;18.20;99.90;;;;;;4976247;28;20215;-66
2023/03/14 07:38:59;;;;;;;0.40;0.40;;;19.10;99.20;;;;;;4976234;28;20238;-66
2023/03/14 07:41:25;;;;;;;1.17;0.63;;;19.80;97.30;;;;;;4975960;28;20634;-66
2023/03/14 07:43:50;;;;;;;1.47;0.43;;;20.40;95.60;;;;;;4975662;28;20255;-66
2023/03/14 07:46:17;;;;;;;1.83;0.70;;;21.00;95.10;;;;;;4976057;28;20173;-72
2023/03/14 07:48:42;;;;;;;0.97;0.50;;;21.50;94.50;;;;;;4975908;28;20184;-67
2023/03/14 07:51:08;;;;;;;0.43;0.40;;;22.10;93.40;;;;;;4974938;28;20430;-66
2023/03/14 07:53:33;;;;;;;0.97;0.63;;;22.70;93.30;;;;;;4975711;28;20179;-66
2023/03/14 07:55:59;;;;;;;2.07;1.57;;;23.30;94.00;;;;;;4975296;28;20327;-64
2023/03/14 07:58:25;;;;;;;1.83;0.80;;;23.80;91.70;;;;;;4975213;28;20208;-67
2023/03/14 08:00:52;;;;;;;0.40;0.40;;;24.50;91.40;;;;;;4975865;28;20674;-67
2023/03/14 08:03:18;;;;;;;0.90;0.90;;;24.70;87.90;;;;;;4975353;28;20626;-67
2023/03/14 08:05:46;;;;;;;0.43;0.40;;;24.40;89.20;;;;;;4975621;28;20475;-67
2023/03/14 08:08:12;;;;;;;0.87;0.70;;;24.30;85.00;;;;;;4975634;28;20498;-66
2023/03/14 08:10:37;;;;;;;0.50;0.50;;;24.00;87.00;;;;;;4975411;28;20526;-67
2023/03/14 08:13:03;;;;;;;0.40;0.40;;;24.00;82.80;;;;;;4975067;28;20223;-67
2023/03/14 08:15:30;;;;;;;0.50;0.50;;;23.60;84.50;;;;;;4975537;28;20303;-68
2023/03/14 08:17:56;;;;;;;0.73;0.60;;;23.40;89.40;;;;;;4975482;28;20638;-67
2023/03/14 08:20:25;;;;;;;0.67;0.67;;;23.30;88.90;;;;;;4975138;28;20734;-67
2023/03/14 08:22:50;;;;;;;0.50;0.40;;;22.90;85.40;;;;;;4973822;28;20196;-65
2023/03/14 08:25:16;;;;;;;0.50;0.50;;;23.10;87.80;;;;;;4974876;28;20447;-67
2023/03/14 08:27:43;;;;;;;1.70;0.50;;;23.30;84.60;;;;;;4974672;28;20231;-66
2023/03/14 08:30:14;;;;;;;2.80;0.97;;;23.10;88.40;;;;;;4975138;28;20793;-68
2023/03/14 08:32:40;;;;;;;0.50;0.40;;;23.10;87.70;;;;;;4975120;28;20412;-67
2023/03/14 08:35:06;;;;;;;0.40;0.40;;;23.30;85.30;;;;;;4974659;28;20461;-67
2023/03/14 08:37:33;;;;;;;0.30;0.30;;;23.60;83.70;;;;;;4974832;28;20494;-68
2023/03/14 08:39:59;;;;;;;0.50;0.50;;;23.60;80.50;;;;;;4974792;28;20925;-66
2023/03/14 08:42:25;;;;;;;0.67;0.60;;;22.90;83.40;;;;;;4974918;28;20397;-69
2023/03/14 08:44:52;;;;;;;0.57;0.57;;;22.60;83.80;;;;;;4974516;28;20246;-67
2023/03/14 08:47:17;;;;;;;0.40;0.40;;;22.60;84.90;;;;;;4974504;28;20642;-65
2023/03/14 08:49:43;;;;;;;0.40;0.40;;;22.90;84.00;;;;;;4975075;28;20402;-65
2023/03/14 08:52:09;;;;;;;1.43;0.77;;;23.60;85.30;;;;;;4974552;28;20677;-67
2023/03/14 08:54:35;;;;;;;0.70;0.50;;;24.50;87.20;;;;;;4973109;28;20204;-67
2023/03/14 08:57:00;;;;;;;0.60;0.60;;;25.30;81.40;;;;;;4974805;28;20207;-67
2023/03/14 08:59:26;;;;;;;0.90;0.90;;;25.20;76.00;;;;;;4974634;28;20187;-68
2023/03/14 09:01:52;;;;;;;4.63;0.50;;;24.30;75.50;;;;;;4974563;28;20246;-68
2023/03/14 09:04:17;;;;;;;2.77;0.60;;;23.50;76.50;;;;;;4974081;28;20196;-67
2023/03/14 09:06:43;;;;;;;0.43;0.43;;;23.00;80.00;;;;;;4974336;28;20188;-66
2023/03/14 09:09:08;;;;;;;1.70;0.40;;;22.50;80.30;;;;;;4974820;28;20172;-67
2023/03/14 09:11:34;;;;;;;0.40;0.30;;;21.80;80.60;;;;;;4974732;28;20261;-68
2023/03/14 09:13:59;;;;;;;1.17;0.50;;;20.90;82.10;;;;;;4974021;28;20241;-73
2023/03/14 09:16:25;;;;;;;0.40;0.40;;;20.10;84.40;;;;;;4973312;28;20180;-67
2023/03/14 09:18:54;;;;;;;0.40;0.40;;;19.30;86.30;;;;;;4974690;28;20207;-67
2023/03/14 09:21:20;;;;;;;0.63;0.50;;;19.30;88.50;;;;;;4974196;28;20180;-67
2023/03/14 09:23:46;;;;;;;0.67;0.43;;;19.30;88.60;;;;;;4973997;28;20474;-67
2023/03/14 09:26:12;;;;;;;0.40;0.40;;;19.00;87.70;;;;;;4974648;28;20425;-70
2023/03/14 09:28:37;;;;;;;0.73;0.73;;;18.30;90.00;;;;;;4974406;28;20202;-66
2023/03/14 09:31:08;;;;;;;0.50;0.50;;;17.40;91.30;;;;;;4974580;28;20186;-67
2023/03/14 09:33:34;;;;;;;0.50;0.50;;;17.00;92.20;;;;;;4973898;28;20319;-65
2023/03/14 09:35:59;;;;;;;0.40;0.40;;;16.80;93.60;;;;;;4974301;28;20406;-66
2023/03/14 09:38:26;;;;;;;3.57;0.80;;;17.00;93.80;;;;;;4974206;28;20466;-67
2023/03/14 09:40:53;;;;;;;0.50;0.40;;;17.20;94.10;;;;;;4977672;28;20261;-67
2023/03/14 09:43:20;;;;;;;0.50;0.50;;;17.30;93.50;;;;;;4978047;28;20374;-62
2023/03/14 09:45:48;;;;;;;0.40;0.40;;;17.30;94.10;;;;;;4978121;28;20471;-59
2023/03/14 09:48:26;;;;;;;0.63;0.53;;;17.60;94.20;;;;;;4978344;28;20419;-58
2023/03/14 09:50:54;;;;;;;1.17;0.60;;;17.90;94.00;;;;;;4975232;28;20423;-59
2023/03/14 09:53:42;;;;;;;0.40;0.40;;;18.30;93.40;;;;;;4958681;28;20724;-60
2023/03/14 09:56:39;;;;;;;0.47;0.40;;;18.70;92.60;;;;;;4975582;28;20431;-60
2023/03/14 09:59:13;;;;;;;0.40;0.40;;;18.80;91.80;;;;;;4975895;28;20398;-60
2023/03/14 10:01:38;;;;;;;0.40;0.40;;;18.40;92.20;;;;;;4978101;28;20937;-59
2023/03/14 10:04:14;;;;;;;0.90;0.60;;;18.00;91.50;;;;;;4977414;28;20433;-59
2023/03/14 10:06:40;;;;;;;0.50;0.50;;;17.50;91.40;;;;;;4977924;28;20195;-59
2023/03/14 10:09:05;;;;;;;0.70;0.40;;;17.00;92.60;;;;;;4977855;28;20436;-59
2023/03/14 10:11:31;;;;;;;0.50;0.50;;;16.60;93.30;;;;;;4977816;28;20184;-59
2023/03/14 10:14:07;;;;;;;0.67;0.67;;;16.40;93.50;;;;;;4977206;28;20169;-61
2023/03/14 10:16:36;;;;;;;0.40;0.40;;;16.30;93.40;;;;;;4977569;28;20212;-59
2023/03/14 10:19:09;;;;;;;0.40;0.40;;;16.50;94.50;;;;;;4977844;28;20444;-58
2023/03/14 10:21:43;;;;;;;0.40;0.40;;;17.30;95.10;;;;;;4977639;28;20408;-59
2023/03/14 10:24:28;;;;;;;1.53;0.40;;;18.40;93.50;;;;;;4976762;28;20498;-59
2023/03/14 10:27:06;;;;;;;0.50;0.50;;;19.40;92.40;;;;;;4977655;28;20411;-58
2023/03/14 10:29:33;;;;;;;0.40;0.30;;;20.10;90.70;;;;;;4977448;28;20423;-59
2023/03/14 10:32:03;;;;;;;0.47;0.47;;;20.80;90.60;;;;;;4977428;28;20886;-59
2023/03/14 10:34:39;;;;;;;0.70;0.47;;;21.10;87.70;;;;;;4976902;28;20464;-59
2023/03/14 10:37:18;;;;;;;0.40;0.40;;;21.30;88.50;;;;;;4977184;28;20488;-61
2023/03/14 10:39:53;;;;;;;0.60;0.40;;;21.40;85.80;;;;;;4977032;28;20902;-58
2023/03/14 10:42:31;;;;;;;0.30;0.30;;;20.90;86.10;;;;;;4977388;28;20430;-57
2023/03/14 10:45:32;;;;;;;0.70;0.70;;;20.20;86.10;;;;;;4969892;28;20455;-59
2023/03/14 10:48:16;;;;;;;4.13;1.17;;;19.40;88.00;;;;;;4951402;28;20408;-58
2023/03/14 10:51:18;;;;;;;1.90;0.30;;;18.60;89.50;;;;;;4953878;28;20452;-59
2023/03/14 10:54:00;;;;;;;0.40;0.40;;;17.80;90.60;;;;;;4949944;28;20466;-59
2023/03/14 10:56:32;;;;;;;1.53;0.50;;;17.30;91.50;;;;;;4956710;28;20422;-59
2023/03/14 10:58:58;;;;;;;0.30;0.30;;;17.10;92.20;;;;;;4971001;28;20429;-59
2023/03/14 11:01:47;;;;;;;0.40;0.40;;;17.00;92.10;;;;;;4976721;28;20395;-58
2023/03/14 11:04:12;;;;;;;2.83;0.40;;;16.80;92.30;;;;;;4976559;28;20193;-69
2023/03/14 11:07:09;;;;;;;0.30;0.30;;;16.50;92.80;;;;;;4976606;28;20438;-70
2023/03/14 11:09:41;;;;;;;0.53;0.50;;;16.20;92.70;;;;;;4974729;28;20192;-69
2023/03/14 11:12:25;;;;;;;0.40;0.40;;;15.90;93.30;;;;;;4976653;28;20442;-68
2023/03/14 11:15:01;;;;;;;0.60;0.30;;;15.70;93.60;;;;;;4976208;28;20434;-68
2023/03/14 11:17:46;;;;;;;0.40;0.40;;;15.40;94.20;;;;;;4976973;28;20483;-69
2023/03/14 11:20:39;;;;;;;0.50;0.40;;;15.20;94.80;;;;;;4976593;28;20436;-69
2023/03/14 11:23:16;;;;;;;0.40;0.40;;;14.90;95.10;;;;;;4976013;28;21376;-69
2023/03/14 11:25:59;;;;;;;0.57;0.57;;;14.80;95.50;;;;;;4976466;28;20913;-68
2023/03/14 11:28:43;;;;;;;0.40;0.33;;;14.70;96.10;;;;;;4976167;28;20435;-68
2023/03/14 11:31:20;;;;;;;0.60;0.60;;;14.50;96.50;;;;;;4976390;28;20420;-69
2023/03/14 11:33:55;;;;;;;0.33;0.33;;;14.40;97.30;;;;;;4975980;28;20454;-67
2023/03/14 11:36:31;;;;;;;0.60;0.33;;;14.20;98.60;;;;;;4974700;28;20433;-68
2023/03/14 11:38:58;;;;;;;0.50;0.50;;;13.90;99.70;;;;;;4976259;28;20410;-68
2023/03/14 11:41:37;;;;;;;0.60;0.50;;;13.80;99.90;;;;;;4975381;28;20418;-69
2023/03/14 11:44:13;;;;;;;0.37;0.37;;;13.60;99.90;;;;;;4974926;28;20443;-69
2023/03/14 11:46:43;;;;;;;0.40;0.40;;;13.50;99.90;;;;;;4976325;28;20458;-69
2023/03/14 11:49:21;;;;;;;1.13;0.70;;;13.40;99.90;;;;;;4974572;28;20426;-69
2023/03/14 11:51:50;;;;;;;0.40;0.40;;;13.40;99.90;;;;;;4976065;28;20425;-70
2023/03/14 11:54:45;;;;;;;0.60;0.40;;;13.40;99.90;;;;;;4975480;28;20949;-70
2023/03/14 11:57:21;;;;;;;0.30;0.30;;;13.40;99.90;;;;;;4956590;28;20549;-68
2023/03/14 11:59:49;;;;;;;0.30;0.30;;;13.50;99.90;;;;;;4970108;28;21000;-69
2023/03/14 12:02:31;;;;;;;0.30;0.30;;;13.50;99.90;;;;;;4975789;28;20935;-70
2023/03/14 12:05:27;;;;;;;0.40;0.40;;;13.50;99.90;;;;;;4975288;28;20802;-69
2023/03/14 12:08:02;;;;;;;0.30;0.30;;;13.40;99.90;;;;;;4975874;28;20454;-68
2023/03/14 12:10:28;;;;;;;0.40;0.40;;;13.40;99.90;;;;;;4975724;28;20427;-67
2023/03/14 12:12:54;;;;;;;0.47;0.43;;;13.40;99.90;;;;;;4975917;28;20416;-67
2023/03/14 12:15:22;;;;;;;0.30;0.30;;;13.30;99.90;;;;;;4975892;28;20453;-67
2023/03/14 12:17:54;;;;;;;0.40;0.30;;;13.20;99.90;;;;;;4975841;28;20281;-67
2023/03/14 12:20:22;;;;;;;0.50;0.50;;;13.10;99.90;;;;;;4976393;28;20442;-67
2023/03/14 12:22:50;;;;;;;3.23;0.50;;;13.20;99.90;;;;;;4974629;28;20905;-67
2023/03/14 12:25:22;;;;;;;0.50;0.50;;;13.30;99.90;;;;;;4975288;28;20454;-67
2023/03/14 12:28:00;;;;;;;0.40;0.37;;;13.40;99.90;;;;;;4975990;28;20897;-66
2023/03/14 12:30:42;;;;;;;0.80;0.70;;;13.40;99.90;;;;;;4977077;28;20935;-68
2023/03/14 12:33:17;;;;;;;0.53;0.53;;;13.40;99.90;;;;;;4976095;28;20422;-67
2023/03/14 12:35:44;;;;;;;0.50;0.40;;;13.40;99.90;;;;;;4975232;28;20800;-66
2023/03/14 12:38:38;;;;;;;0.43;0.43;;;13.30;99.90;;;;;;4974888;28;20455;-66
2023/03/14 12:41:17;;;;;;;0.50;0.43;;;13.40;99.90;;;;;;4955880;28;20428;-67
2023/03/14 12:43:42;;;;;;;0.50;0.40;;;13.50;99.90;;;;;;4955301;28;20411;-67
2023/03/14 12:46:17;;;;;;;0.40;0.40;;;13.50;99.90;;;;;;4955448;28;20929;-67
2023/03/14 12:49:09;;;;;;;0.50;0.50;;;13.60;99.90;;;;;;4955453;28;20163;-67
2023/03/14 12:51:45;;;;;;;0.97;0.97;;;13.90;99.90;;;;;;4955397;28;20726;-69
2023/03/14 12:54:10;;;;;;;0.70;0.70;;;13.90;99.20;;;;;;4973852;28;20462;-68
2023/03/14 12:57:00;;;;;;;4.10;0.73;;;13.80;98.30;;;;;;4973526;28;20404;-67
2023/03/14 12:59:36;;;;;;;3.53;0.70;;;13.60;98.50;;;;;;4973515;28;20176;-66
2023/03/14 13:02:19;;;;;;;0.70;0.70;;;13.40;97.70;;;;;;4974815;28;20408;-66
2023/03/14 13:04:59;;;;;;;0.63;0.63;;;13.10;96.20;;;;;;4974257;28;20457;-66
2023/03/14 13:07:43;;;;;;;0.97;0.50;;;13.00;96.10;;;;;;4974261;28;20497;-67
2023/03/14 13:10:08;;;;;;;0.93;0.60;;;12.90;96.00;;;;;;4974816;28;20486;-67
2023/03/14 13:13:02;;;;;;;0.70;0.70;;;12.80;94.70;;;;;;4973995;28;20422;-67
2023/03/14 13:15:30;;;;;;;0.53;0.50;;;12.70;94.10;;;;;;4971689;28;20214;-68
2023/03/14 13:18:08;;;;;;;2.07;1.40;;;12.60;93.40;;;;;;4973690;28;20902;-68
2023/03/14 13:20:38;;;;;;;5.00;0.87;;;12.50;92.80;;;;;;4974682;28;20413;-68
2023/03/14 13:23:04;;;;;;;1.67;1.20;;;12.40;92.70;;;;;;4972390;28;20421;-68
2023/03/14 13:25:35;;;;;;;2.43;0.80;;;12.30;93.30;;;;;;4973658;28;20449;-69
2023/03/14 13:28:01;;;;;;;0.40;0.40;;;12.20;92.80;;;;;;4974471;28;20414;-68
2023/03/14 13:30:35;;;;;;;0.60;0.60;;;12.10;92.30;;;;;;4974508;28;20402;-70
2023/03/14 13:33:04;;;;;;;1.53;0.50;;;12.10;92.30;;;;;;4972920;28;20426;-69
2023/03/14 13:35:42;;;;;;;0.60;0.60;;;12.10;93.00;;;;;;4974299;28;20430;-69
2023/03/14 13:38:23;;;;;;;0.50;0.50;;;12.30;92.80;;;;;;4973513;28;20461;-69
2023/03/14 13:40:50;;;;;;;12.20;2.00;;;12.40;91.10;;;;;;4974164;28;20501;-68
2023/03/14 13:43:40;;;;;;;0.93;0.50;;;12.50;90.50;;;;;;4973804;28;20773;-68
2023/03/14 13:46:14;;;;;;;0.40;0.40;;;12.40;90.50;;;;;;4974412;28;20832;-69
2023/03/14 13:48:46;;;;;;;2.10;1.10;;;12.30;90.20;;;;;;4974527;28;20414;-68
2023/03/14 13:51:14;;;;;;;1.07;0.57;;;12.20;89.80;;;;;;4974211;28;20435;-69
2023/03/14 13:53:46;;;;;;;0.43;0.43;;;12.00;90.00;;;;;;4973924;28;20544;-69
2023/03/14 13:56:13;;;;;;;14.33;1.47;;;12.00;90.80;;;;;;4972951;28;20935;-69
2023/03/14 13:58:40;;;;;;;1.23;1.07;;;12.00;90.60;;;;;;4974265;28;20786;-68
2023/03/14 14:01:28;;;;;;;3.10;1.00;;;12.00;90.60;;;;;;4974327;28;20754;-69
2023/03/14 14:03:56;;;;;;;0.60;0.60;;;12.00;90.40;;;;;;4973659;28;20406;-69
2023/03/14 14:06:25;;;;;;;3.70;0.70;;;12.10;90.20;;;;;;4973805;28;20442;-69
2023/03/14 14:08:51;;;;;;;1.03;0.60;;;12.00;88.40;;;;;;4973950;28;20540;-69
2023/03/14 14:11:40;;;;;;;1.60;0.63;;;11.90;85.70;;;;;;4973746;28;20986;-69
2023/03/14 14:14:12;;;;;;;0.50;0.50;;;11.70;84.40;;;;;;4966256;28;20221;-70
2023/03/14 14:16:38;;;;;;;0.57;0.57;;;11.50;84.90;;;;;;4973982;28;20445;-69
2023/03/14 14:19:04;;;;;;;0.53;0.53;;;11.50;85.00;;;;;;4974055;28;20485;-69
2023/03/14 14:21:31;;;;;;;0.40;0.40;;;11.50;84.40;;;;;;4974003;28;20941;-70
2023/03/14 14:23:57;;;;;;;1.00;0.50;;;11.40;83.80;;;;;;4973635;28;20413;-67
2023/03/14 14:26:25;;;;;;;0.93;0.53;;;11.30;83.40;;;;;;4974972;28;20434;-69
2023/03/14 14:29:03;;;;;;;1.98;0.47;;;11.20;82.70;;;;;;4978214;28;20480;-69
2023/03/14 14:31:28;;;;;;;0.40;0.40;;;11.20;81.90;;;;;;4976215;28;20715;-69
2023/03/14 14:34:00;;;;;;;0.60;0.50;;;11.20;82.20;;;;;;4976859;28;20503;-69
2023/03/14 14:36:37;;;;;;;0.83;0.50;;;11.10;82.80;;;;;;4977337;28;20182;-68
2023/03/14 14:39:26;;;;;;;0.30;0.30;;;11.00;82.90;;;;;;4977464;28;20406;-69
2023/03/14 14:41:52;;;;;;;0.40;0.40;;;11.00;83.40;;;;;;4976880;28;20432;-69
2023/03/14 14:44:29;;;;;;;1.30;0.57;;;11.00;85.10;;;;;;4976812;28;20239;-69
2023/03/14 14:46:56;;;;;;;1.40;0.50;;;10.90;84.90;;;;;;4977247;28;20495;-69
2023/03/14 14:49:28;;;;;;;0.85;0.85;;;10.90;84.60;;;;;;4977250;28;20466;-69
2023/03/14 14:52:02;;;;;;;0.63;0.57;;;10.90;84.70;;;;;;4977362;28;20237;-69
2023/03/14 14:54:43;;;;;;;1.08;0.98;;;10.90;85.00;;;;;;4976397;28;20201;-69
2023/03/14 14:57:40;;;;;;;0.50;0.50;;;10.80;84.90;;;;;;4976923;28;20220;-68
2023/03/14 15:00:17;;;;;;;0.40;0.40;;;10.80;84.20;;;;;;4968625;28;20195;-69
2023/03/14 15:02:49;;;;;;;1.15;1.15;;;10.80;84.60;;;;;;4975396;28;20184;-69
2023/03/14 15:05:23;;;;;;;0.60;0.60;;;10.80;85.30;;;;;;4976461;28;20251;-69
2023/03/14 15:07:49;;;;;;;1.50;0.67;;;10.80;85.90;;;;;;4976543;28;20433;-68
2023/03/14 15:10:17;;;;;;;0.53;0.53;;;10.80;85.50;;;;;;4976572;28;20409;-69
2023/03/14 15:12:43;;;;;;;2.05;0.70;;;10.70;85.50;;;;;;4976340;28;20413;-68
2023/03/14 15:15:09;;;;;;;0.83;0.57;;;10.70;84.60;;;;;;4975646;28;20692;-70
2023/03/14 15:17:36;;;;;;;0.98;0.75;;;10.60;85.20;;;;;;4976300;28;20255;-69
2023/03/14 15:20:04;;;;;;;0.70;0.70;;;10.60;85.70;;;;;;4976367;28;20248;-69
2023/03/14 15:22:29;;;;;;;1.20;0.60;;;10.70;86.30;;;;;;4976249;28;20636;-69
2023/03/14 15:24:55;;;;;;;0.50;0.50;;;10.70;85.80;;;;;;4975608;28;20197;-69
2023/03/14 15:27:21;;;;;;;1.43;0.67;;;10.80;86.70;;;;;;4975610;28;20184;-68
2023/03/14 15:29:46;;;;;;;0.77;0.60;;;10.80;86.30;;;;;;4975969;28;20177;-69
2023/03/14 15:32:14;;;;;;;6.43;1.00;;;10.90;85.70;;;;;;4975707;28;20259;-70
2023/03/14 15:34:40;;;;;;;0.50;0.50;;;11.00;85.50;;;;;;4975387;28;20196;-69
2023/03/14 15:37:12;;;;;;;0.77;0.55;;;11.10;84.90;;;;;;4975351;28;20196;-69
2023/03/14 15:39:38;;;;;;;0.50;0.50;;;11.20;84.40;;;;;;4974435;28;20228;-61
2023/03/14 15:42:04;;;;;;;1.73;0.70;;;11.10;84.10;;;;;;4974239;28;20212;-66
2023/03/14 15:44:30;;;;;;;0.60;0.60;;;11.00;83.60;;;;;;4974851;28;20480;-64
2023/03/14 15:46:55;;;;;;;0.60;0.60;;;11.00;84.30;;;;;;4974719;28;20189;-63
2023/03/14 15:49:21;;;;;;;1.47;0.80;;;10.90;85.10;;;;;;4974148;28;20454;-65
2023/03/14 15:51:46;;;;;;;0.50;0.50;;;10.80;85.40;;;;;;4975456;28;20665;-65
2023/03/14 15:54:12;;;;;;;0.60;0.60;;;10.70;86.20;;;;;;4974968;28;20196;-65
2023/03/14 15:56:38;;;;;;;1.23;0.67;;;10.60;86.60;;;;;;4975459;28;20647;-66
2023/03/14 15:59:03;;;;;;;0.60;0.60;;;10.70;86.60;;;;;;4975340;28;20307;-65
2023/03/14 16:01:29;;;;;;;1.20;0.67;;;10.60;87.00;;;;;;4975095;28;20663;-68
2023/03/14 16:03:55;;;;;;;3.70;0.70;;;10.60;87.60;;;;;;4974350;28;20210;-69
2023/03/14 16:06:21;;;;;;;2.38;1.00;;;10.60;87.70;;;;;;4974284;28;20192;-69
2023/03/14 16:08:46;;;;;;;0.67;0.50;;;10.60;87.90;;;;;;4973993;28;20190;-69
2023/03/14 16:11:14;;;;;;;3.40;1.37;;;10.50;88.00;;;;;;4975339;28;20188;-68
2023/03/14 16:13:40;;;;;;;2.15;0.82;;;10.50;89.50;;;;;;4975050;28;20675;-69
2023/03/14 16:16:07;;;;;;;1.75;0.65;;;10.50;89.40;;;;;;4975404;28;20176;-69
2023/03/14 16:18:35;;;;;;;2.13;0.90;;;10.50;89.40;;;;;;4975144;28;20265;-70
2023/03/14 16:21:15;;;;;;;5.93;0.88;;;10.50;89.70;;;;;;4974977;28;20176;-69
2023/03/14 16:23:41;;;;;;;1.35;0.95;;;10.40;89.60;;;;;;4975343;28;20654;-68
2023/03/14 16:26:10;;;;;;;1.00;1.00;;;10.40;89.50;;;;;;4975312;28;20232;-70
2023/03/14 16:28:37;;;;;;;1.50;1.08;;;10.30;90.10;;;;;;4975488;28;20416;-67
2023/03/14 16:31:07;;;;;;;0.80;0.70;;;10.30;89.90;;;;;;4973598;28;20238;-69
2023/03/14 16:33:34;;;;;;;1.75;0.70;;;10.20;90.10;;;;;;4969865;28;20185;-69
2023/03/14 16:36:04;;;;;;;0.75;0.60;;;10.20;90.60;;;;;;4955744;28;20827;-68
2023/03/14 16:38:31;;;;;;;1.52;0.90;;;10.10;90.40;;;;;;4955754;28;20200;-69
2023/03/14 16:41:02;;;;;;;1.95;0.55;;;10.20;90.70;;;;;;4966817;28;20215;-67
2023/03/14 16:43:28;;;;;;;5.22;1.67;;;10.10;90.80;;;;;;4974666;28;20180;-70
2023/03/14 16:45:56;;;;;;;2.07;0.80;;;10.10;90.60;;;;;;4974765;28;20191;-69
2023/03/14 16:48:22;;;;;;;4.93;1.05;;;10.00;90.80;;;;;;4955099;28;20438;-70
2023/03/14 16:50:49;;;;;;;0.83;0.73;;;10.00;91.20;;;;;;4955370;28;20200;-69
2023/03/14 16:53:15;;;;;;;1.00;0.70;;;10.00;91.40;;;;;;4969711;28;20955;-68
2023/03/14 16:55:42;;;;;;;1.00;0.87;;;10.00;91.70;;;;;;4974568;28;20275;-68
2023/03/14 16:58:08;;;;;;;1.20;1.00;;;9.90;92.30;;;;;;4973492;28;20546;-67
2023/03/14 17:00:34;;;;;;;1.38;1.27;;;9.90;92.20;;;;;;4974716;28;20231;-65
2023/03/14 17:02:59;;;;;;;0.87;0.60;;;9.90;92.20;;;;;;4973534;28;20176;-67
2023/03/14 17:05:25;;;;;;;1.33;0.73;;;9.90;92.40;;;;;;4974140;28;20199;-68
2023/03/14 17:07:52;;;;;;;0.50;0.50;;;9.80;92.40;;;;;;4974603;28;20298;-66
2023/03/14 17:10:18;;;;;;;0.67;0.67;;;9.80;92.40;;;;;;4974818;28;20259;-66
2023/03/14 17:12:44;;;;;;;0.97;0.63;;;9.70;92.70;;;;;;4974440;28;20187;-64
2023/03/14 17:15:11;;;;;;;7.90;1.08;;;9.70;93.20;;;;;;4974695;28;20196;-68
2023/03/14 17:17:37;;;;;;;1.08;1.00;;;9.60;93.50;;;;;;4974500;28;20230;-66
2023/03/14 17:20:08;;;;;;;2.57;0.57;;;9.50;94.60;;;;;;4975066;28;20176;-65
2023/03/14 17:22:34;;;;;;;1.65;1.10;;;9.40;95.70;;;;;;4975565;28;20930;-66
2023/03/14 17:25:00;;;;;;;0.98;0.88;;;9.30;96.50;;;;;;4975423;28;20219;-67
2023/03/14 17:27:26;;;;;;;1.75;0.70;;;9.10;97.30;;;;;;4975072;28;20168;-65
2023/03/14 17:29:52;;;;;;;1.20;0.85;;;9.00;98.20;;;;;;4975033;28;20226;-67
2023/03/14 17:32:17;;;;;;;1.00;0.93;;;8.80;99.00;;;;;;4971274;28;20184;-67
2023/03/14 17:34:43;;;;;;;3.27;0.57;;;8.70;99.60;;;;;;4969525;28;20204;-66
2023/03/14 17:37:09;;;;;;;1.47;1.37;;;8.60;99.90;;;;;;4973850;28;20554;-67
2023/03/14 17:39:35;;;;;;;0.70;0.70;;;8.50;99.90;;;;;;4974186;28;20180;-67
2023/03/14 17:42:01;;;;;;;0.80;0.60;;;8.40;99.90;;;;;;4974222;28;20215;-67
2023/03/14 17:44:26;;;;;;;1.00;0.83;;;8.40;99.90;;;;;;4972185;28;20991;-67
2023/03/14 17:46:52;;;;;;;2.00;0.80;;;8.40;99.90;;;;;;4968026;28;20186;-67
2023/03/14 17:49:18;;;;;;;0.90;0.90;;;8.40;99.90;;;;;;4973831;28;20611;-69
2023/03/14 17:51:43;;;;;;;2.00;1.03;;;8.30;99.90;;;;;;4972921;28;20199;-66
2023/03/14 17:54:09;;;;;;;0.80;0.80;;;8.30;99.90;;;;;;4966013;28;20285;-68
2023/03/14 17:56:35;;;;;;;1.20;0.80;;;8.20;99.90;;;;;;4973487;28;20172;-68
2023/03/14 17:59:01;;;;;;;1.70;1.10;;;8.20;99.90;;;;;;4974283;28;20235;-67
2023/03/14 18:01:27;;;;;;;1.75;0.88;;;8.10;99.90;;;;;;4976659;28;20200;-69
2023/03/14 18:03:57;;;;;;;0.83;0.83;;;8.10;99.90;;;;;;4974745;28;20199;-66
2023/03/14 18:06:23;;;;;;;1.48;1.17;;;8.00;99.90;;;;;;4976534;28;20194;-67